sensor_id;sensor_type;location;lat;lon;timestamp;pressure;altitude;pressure_sealevel;temperature;humidity
62150;BME280;48134;53.586;10.610;2022-09-13T00:01:55;100321.59;;;14.33;100.00
62150;BME280;48134;53.586;10.610;2022-09-13T00:04:29;100318.53;;;14.35;100.00
62150;BME280;48134;53.586;10.610;2022-09-13T00:07:02;100317.75;;;14.34;100.00
62150;BME280;48134;53.586;10.610;2022-09-13T00:09:35;100319.06;;;14.37;100.00
62150;BME280;48134;53.586;10.610;2022-09-13T00:12:08;100311.16;;;14.35;100.00
62150;BME280;48134;53.586;10.610;2022-09-13T00:14:41;100310.16;;;14.31;100.00
62150;BME280;48134;53.586;10.610;2022-09-13T00:17:14;100308.41;;;14.35;100.00
62150;BME280;48134;53.586;10.610;2022-09-13T00:19:48;100298.91;;;14.33;100.00
62150;BME280;48134;53.586;10.610;2022-09-13T00:22:20;100296.81;;;14.29;100.00
62150;BME280;48134;53.586;10.610;2022-09-13T00:24:53;100301.13;;;14.31;100.00
62150;BME280;48134;53.586;10.610;2022-09-13T00:27:26;100295.81;;;14.25;100.00
62150;BME280;48134;53.586;10.610;2022-09-13T00:29:59;100298.03;;;14.23;100.00
62150;BME280;48134;53.586;10.610;2022-09-13T00:32:27;100294.50;;;14.23;100.00
62150;BME280;48134;53.586;10.610;2022-09-13T00:35:01;100291.13;;;14.26;100.00
62150;BME280;48134;53.586;10.610;2022-09-13T00:37:29;100297.13;;;14.28;100.00
62150;BME280;48134;53.586;10.610;2022-09-13T00:39:58;100288.09;;;14.27;100.00
62150;BME280;48134;53.586;10.610;2022-09-13T00:42:26;100286.97;;;14.28;100.00
62150;BME280;48134;53.586;10.610;2022-09-13T00:44:59;100279.38;;;14.25;100.00
62150;BME280;48134;53.586;10.610;2022-09-13T00:47:34;100281.69;;;14.32;100.00
62150;BME280;48134;53.586;10.610;2022-09-13T00:50:13;100272.47;;;14.28;100.00
62150;BME280;48134;53.586;10.610;2022-09-13T00:52:48;100267.00;;;14.28;100.00
62150;BME280;48134;53.586;10.610;2022-09-13T00:55:24;100261.38;;;14.33;100.00
62150;BME280;48134;53.586;10.610;2022-09-13T00:57:59;100261.06;;;14.35;100.00
62150;BME280;48134;53.586;10.610;2022-09-13T01:00:34;100256.88;;;14.37;100.00
62150;BME280;48134;53.586;10.610;2022-09-13T01:03:08;100249.81;;;14.36;100.00
62150;BME280;48134;53.586;10.610;2022-09-13T01:05:45;100245.91;;;14.28;100.00
62150;BME280;48134;53.586;10.610;2022-09-13T01:08:19;100240.31;;;14.34;100.00
62150;BME280;48134;53.586;10.610;2022-09-13T01:10:53;100240.41;;;14.20;100.00
62150;BME280;48134;53.586;10.610;2022-09-13T01:13:29;100247.31;;;14.17;100.00
62150;BME280;48134;53.586;10.610;2022-09-13T01:16:03;100235.19;;;14.09;100.00
62150;BME280;48134;53.586;10.610;2022-09-13T01:18:31;100229.81;;;13.95;100.00
62150;BME280;48134;53.586;10.610;2022-09-13T01:21:07;100229.00;;;13.95;100.00
62150;BME280;48134;53.586;10.610;2022-09-13T01:29:57;100231.31;;;13.79;100.00
62150;BME280;48134;53.586;10.610;2022-09-13T01:32:27;100227.91;;;13.73;100.00
62150;BME280;48134;53.586;10.610;2022-09-13T01:35:07;100242.53;;;13.69;100.00
62150;BME280;48134;53.586;10.610;2022-09-13T01:37:49;100239.59;;;13.65;100.00
62150;BME280;48134;53.586;10.610;2022-09-13T01:40:26;100241.09;;;13.71;100.00
62150;BME280;48134;53.586;10.610;2022-09-13T01:43:06;100237.06;;;13.69;100.00
62150;BME280;48134;53.586;10.610;2022-09-13T01:45:40;100226.13;;;13.69;100.00
62150;BME280;48134;53.586;10.610;2022-09-13T01:48:20;100217.47;;;13.75;100.00
62150;BME280;48134;53.586;10.610;2022-09-13T01:50:52;100205.84;;;13.70;100.00
62150;BME280;48134;53.586;10.610;2022-09-13T01:53:24;100211.19;;;13.75;100.00
62150;BME280;48134;53.586;10.610;2022-09-13T01:55:58;100212.31;;;13.74;100.00
62150;BME280;48134;53.586;10.610;2022-09-13T01:58:37;100218.72;;;13.69;100.00
62150;BME280;48134;53.586;10.610;2022-09-13T02:01:12;100209.09;;;13.72;100.00
62150;BME280;48134;53.586;10.610;2022-09-13T02:03:50;100211.31;;;13.70;100.00
62150;BME280;48134;53.586;10.610;2022-09-13T02:06:23;100201.00;;;13.67;100.00
62150;BME280;48134;53.586;10.610;2022-09-13T02:08:59;100196.16;;;13.64;100.00
62150;BME280;48134;53.586;10.610;2022-09-13T02:11:28;100197.59;;;13.61;100.00
62150;BME280;48134;53.586;10.610;2022-09-13T02:14:03;100188.75;;;13.64;100.00
62150;BME280;48134;53.586;10.610;2022-09-13T02:16:40;100176.22;;;13.63;100.00
62150;BME280;48134;53.586;10.610;2022-09-13T02:19:16;100171.25;;;13.65;100.00
62150;BME280;48134;53.586;10.610;2022-09-13T02:21:53;100162.06;;;13.61;100.00
62150;BME280;48134;53.586;10.610;2022-09-13T02:24:23;100164.97;;;13.65;100.00
62150;BME280;48134;53.586;10.610;2022-09-13T02:26:58;100161.94;;;13.66;100.00
62150;BME280;48134;53.586;10.610;2022-09-13T02:29:35;100153.38;;;13.59;100.00
62150;BME280;48134;53.586;10.610;2022-09-13T02:32:11;100144.84;;;13.60;100.00
62150;BME280;48134;53.586;10.610;2022-09-13T02:34:47;100152.88;;;13.57;100.00
62150;BME280;48134;53.586;10.610;2022-09-13T02:37:18;100142.91;;;13.61;100.00
62150;BME280;48134;53.586;10.610;2022-09-13T02:39:53;100147.28;;;13.62;100.00
62150;BME280;48134;53.586;10.610;2022-09-13T02:42:24;100140.19;;;13.61;100.00
62150;BME280;48134;53.586;10.610;2022-09-13T02:44:59;100154.47;;;13.58;100.00
62150;BME280;48134;53.586;10.610;2022-09-13T02:47:31;100163.00;;;13.56;100.00
62150;BME280;48134;53.586;10.610;2022-09-13T02:50:07;100154.47;;;13.58;100.00
62150;BME280;48134;53.586;10.610;2022-09-13T02:52:45;100148.06;;;13.63;100.00
62150;BME280;48134;53.586;10.610;2022-09-13T02:55:20;100146.28;;;13.58;100.00
62150;BME280;48134;53.586;10.610;2022-09-13T02:57:58;100134.41;;;13.63;100.00
62150;BME280;48134;53.586;10.610;2022-09-13T03:00:32;100121.34;;;13.59;100.00
62150;BME280;48134;53.586;10.610;2022-09-13T03:03:07;100112.53;;;13.63;100.00
62150;BME280;48134;53.586;10.610;2022-09-13T03:05:36;100117.97;;;13.54;100.00
62150;BME280;48134;53.586;10.610;2022-09-13T03:08:04;100119.28;;;13.65;100.00
62150;BME280;48134;53.586;10.610;2022-09-13T03:10:41;100106.75;;;13.64;100.00
62150;BME280;48134;53.586;10.610;2022-09-13T03:13:30;100104.97;;;13.59;100.00
62150;BME280;48134;53.586;10.610;2022-09-13T03:16:06;100095.44;;;13.57;100.00
62150;BME280;48134;53.586;10.610;2022-09-13T03:18:50;100104.59;;;13.52;100.00
62150;BME280;48134;53.586;10.610;2022-09-13T03:21:29;100103.31;;;13.50;100.00
62150;BME280;48134;53.586;10.610;2022-09-13T03:24:05;100109.91;;;13.57;100.00
62150;BME280;48134;53.586;10.610;2022-09-13T03:26:40;100108.94;;;13.53;100.00
62150;BME280;48134;53.586;10.610;2022-09-13T03:29:20;100107.81;;;13.54;100.00
62150;BME280;48134;53.586;10.610;2022-09-13T03:31:52;100099.81;;;13.58;100.00
62150;BME280;48134;53.586;10.610;2022-09-13T03:34:32;100100.13;;;13.56;100.00
62150;BME280;48134;53.586;10.610;2022-09-13T03:37:05;100091.41;;;13.54;100.00
62150;BME280;48134;53.586;10.610;2022-09-13T03:39:41;100096.44;;;13.61;100.00
62150;BME280;48134;53.586;10.610;2022-09-13T03:42:13;100091.28;;;13.59;100.00
62150;BME280;48134;53.586;10.610;2022-09-13T03:44:50;100090.34;;;13.64;100.00
62150;BME280;48134;53.586;10.610;2022-09-13T03:47:19;100090.19;;;13.69;100.00
62150;BME280;48134;53.586;10.610;2022-09-13T03:49:49;100085.50;;;13.61;100.00
62150;BME280;48134;53.586;10.610;2022-09-13T03:52:23;100077.97;;;13.67;100.00
62150;BME280;48134;53.586;10.610;2022-09-13T03:54:56;100085.25;;;13.71;100.00
62150;BME280;48134;53.586;10.610;2022-09-13T03:57:29;100079.25;;;13.69;100.00
62150;BME280;48134;53.586;10.610;2022-09-13T04:00:02;100073.34;;;13.76;100.00
62150;BME280;48134;53.586;10.610;2022-09-13T04:02:37;100076.56;;;13.78;100.00
62150;BME280;48134;53.586;10.610;2022-09-13T04:05:11;100073.22;;;13.81;100.00
62150;BME280;48134;53.586;10.610;2022-09-13T04:07:44;100078.69;;;13.81;100.00
62150;BME280;48134;53.586;10.610;2022-09-13T04:10:12;100064.50;;;13.79;100.00
62150;BME280;48134;53.586;10.610;2022-09-13T04:12:45;100075.13;;;13.81;100.00
62150;BME280;48134;53.586;10.610;2022-09-13T04:15:13;100071.44;;;13.85;100.00
62150;BME280;48134;53.586;10.610;2022-09-13T04:17:46;100076.75;;;13.90;100.00
62150;BME280;48134;53.586;10.610;2022-09-13T04:20:20;100080.31;;;13.91;100.00
62150;BME280;48134;53.586;10.610;2022-09-13T04:22:49;100067.94;;;13.93;100.00
62150;BME280;48134;53.586;10.610;2022-09-13T04:25:17;100080.47;;;13.94;100.00
62150;BME280;48134;53.586;10.610;2022-09-13T04:27:46;100075.19;;;13.98;100.00
62150;BME280;48134;53.586;10.610;2022-09-13T04:30:13;100071.16;;;13.95;100.00
62150;BME280;48134;53.586;10.610;2022-09-13T04:32:46;100063.91;;;14.00;100.00
62150;BME280;48134;53.586;10.610;2022-09-13T04:35:14;100062.47;;;14.02;100.00
62150;BME280;48134;53.586;10.610;2022-09-13T04:37:51;100069.56;;;14.03;100.00
62150;BME280;48134;53.586;10.610;2022-09-13T04:40:21;100067.31;;;14.05;100.00
62150;BME280;48134;53.586;10.610;2022-09-13T04:42:54;100066.97;;;13.98;100.00
62150;BME280;48134;53.586;10.610;2022-09-13T04:45:22;100062.97;;;14.04;100.00
62150;BME280;48134;53.586;10.610;2022-09-13T04:47:55;100067.63;;;14.04;100.00
62150;BME280;48134;53.586;10.610;2022-09-13T04:50:28;100067.97;;;14.02;100.00
62150;BME280;48134;53.586;10.610;2022-09-13T04:53:03;100065.53;;;14.01;100.00
62150;BME280;48134;53.586;10.610;2022-09-13T04:55:31;100062.81;;;14.01;100.00
62150;BME280;48134;53.586;10.610;2022-09-13T04:57:59;100062.16;;;14.04;100.00
62150;BME280;48134;53.586;10.610;2022-09-13T05:00:31;100063.47;;;14.06;100.00
62150;BME280;48134;53.586;10.610;2022-09-13T05:03:04;100060.41;;;14.08;100.00
62150;BME280;48134;53.586;10.610;2022-09-13T05:05:32;100063.94;;;14.08;100.00
62150;BME280;48134;53.586;10.610;2022-09-13T05:08:00;100061.69;;;14.10;100.00
62150;BME280;48134;53.586;10.610;2022-09-13T05:10:34;100061.56;;;14.16;100.00
62150;BME280;48134;53.586;10.610;2022-09-13T05:13:02;100057.19;;;14.15;100.00
62150;BME280;48134;53.586;10.610;2022-09-13T05:15:30;100061.69;;;14.19;100.00
62150;BME280;48134;53.586;10.610;2022-09-13T05:18:03;100063.31;;;14.20;100.00
62150;BME280;48134;53.586;10.610;2022-09-13T05:20:31;100075.06;;;14.21;100.00
62150;BME280;48134;53.586;10.610;2022-09-13T05:23:03;100067.50;;;14.18;100.00
62150;BME280;48134;53.586;10.610;2022-09-13T05:25:31;100081.03;;;14.23;100.00
62150;BME280;48134;53.586;10.610;2022-09-13T05:28:05;100072.31;;;14.21;100.00
62150;BME280;48134;53.586;10.610;2022-09-13T05:30:33;100076.03;;;14.25;100.00
62150;BME280;48134;53.586;10.610;2022-09-13T05:33:01;100079.09;;;14.23;100.00
62150;BME280;48134;53.586;10.610;2022-09-13T05:35:29;100083.78;;;14.23;100.00
62150;BME280;48134;53.586;10.610;2022-09-13T05:37:57;100094.22;;;14.21;100.00
62150;BME280;48134;53.586;10.610;2022-09-13T05:40:27;100088.13;;;14.24;100.00
62150;BME280;48134;53.586;10.610;2022-09-13T05:43:00;100085.88;;;14.26;100.00
62150;BME280;48134;53.586;10.610;2022-09-13T05:45:29;100092.13;;;14.26;100.00
62150;BME280;48134;53.586;10.610;2022-09-13T05:48:03;100095.03;;;14.21;100.00
62150;BME280;48134;53.586;10.610;2022-09-13T05:50:36;100093.09;;;14.22;100.00
62150;BME280;48134;53.586;10.610;2022-09-13T05:53:08;100086.97;;;14.25;100.00
62150;BME280;48134;53.586;10.610;2022-09-13T05:55:41;100083.78;;;14.23;100.00
62150;BME280;48134;53.586;10.610;2022-09-13T05:58:14;100084.91;;;14.31;100.00
62150;BME280;48134;53.586;10.610;2022-09-13T06:00:52;100076.34;;;14.23;100.00
62150;BME280;48134;53.586;10.610;2022-09-13T06:03:21;100073.81;;;14.27;100.00
62150;BME280;48134;53.586;10.610;2022-09-13T06:05:54;100080.56;;;14.29;100.00
62150;BME280;48134;53.586;10.610;2022-09-13T06:08:27;100077.00;;;14.29;100.00
62150;BME280;48134;53.586;10.610;2022-09-13T06:10:56;100080.25;;;14.31;100.00
62150;BME280;48134;53.586;10.610;2022-09-13T06:13:30;100085.72;;;14.31;100.00
62150;BME280;48134;53.586;10.610;2022-09-13T06:16:05;100082.34;;;14.43;100.00
62150;BME280;48134;53.586;10.610;2022-09-13T06:18:38;100079.31;;;14.44;100.00
62150;BME280;48134;53.586;10.610;2022-09-13T06:21:06;100087.66;;;14.57;100.00
62150;BME280;48134;53.586;10.610;2022-09-13T06:23:40;100083.97;;;14.53;100.00
62150;BME280;48134;53.586;10.610;2022-09-13T06:26:13;100079.31;;;14.62;100.00
62150;BME280;48134;53.586;10.610;2022-09-13T06:28:46;100082.03;;;14.62;100.00
62150;BME280;48134;53.586;10.610;2022-09-13T06:31:21;100093.63;;;14.59;100.00
62150;BME280;48134;53.586;10.610;2022-09-13T06:33:55;100094.44;;;14.59;100.00
62150;BME280;48134;53.586;10.610;2022-09-13T06:36:29;100086.06;;;14.56;100.00
62150;BME280;48134;53.586;10.610;2022-09-13T06:39:01;100091.22;;;14.57;100.00
62150;BME280;48134;53.586;10.610;2022-09-13T06:41:37;100083.88;;;14.67;100.00
62150;BME280;48134;53.586;10.610;2022-09-13T06:44:09;100086.41;;;14.72;100.00
62150;BME280;48134;53.586;10.610;2022-09-13T06:46:44;100083.06;;;14.75;100.00
62150;BME280;48134;53.586;10.610;2022-09-13T06:49:17;100087.22;;;14.81;100.00
62150;BME280;48134;53.586;10.610;2022-09-13T06:51:45;100089.00;;;14.86;100.00
62150;BME280;48134;53.586;10.610;2022-09-13T06:54:13;100083.53;;;14.94;100.00
62150;BME280;48134;53.586;10.610;2022-09-13T06:56:41;100084.31;;;15.04;100.00
62150;BME280;48134;53.586;10.610;2022-09-13T06:59:13;100087.69;;;15.09;100.00
62150;BME280;48134;53.586;10.610;2022-09-13T07:01:42;100090.13;;;15.11;100.00
62150;BME280;48134;53.586;10.610;2022-09-13T07:04:16;100077.31;;;15.33;100.00
62150;BME280;48134;53.586;10.610;2022-09-13T07:06:50;100075.88;;;15.26;100.00
62150;BME280;48134;53.586;10.610;2022-09-13T07:09:23;100080.25;;;15.27;100.00
62150;BME280;48134;53.586;10.610;2022-09-13T07:11:56;100078.47;;;15.23;100.00
62150;BME280;48134;53.586;10.610;2022-09-13T07:14:29;100078.75;;;15.30;100.00
62150;BME280;48134;53.586;10.610;2022-09-13T07:17:02;100078.13;;;15.33;100.00
62150;BME280;48134;53.586;10.610;2022-09-13T07:19:31;100085.38;;;15.38;100.00
62150;BME280;48134;53.586;10.610;2022-09-13T07:22:04;100081.16;;;15.40;100.00
62150;BME280;48134;53.586;10.610;2022-09-13T07:24:37;100092.22;;;15.61;100.00
62150;BME280;48134;53.586;10.610;2022-09-13T07:27:10;100101.75;;;15.64;100.00
62150;BME280;48134;53.586;10.610;2022-09-13T07:29:45;100096.22;;;15.81;100.00
62150;BME280;48134;53.586;10.610;2022-09-13T07:32:18;100104.25;;;15.87;100.00
62150;BME280;48134;53.586;10.610;2022-09-13T07:34:53;100110.06;;;15.85;100.00
62150;BME280;48134;53.586;10.610;2022-09-13T07:37:38;100099.03;;;16.03;100.00
62150;BME280;48134;53.586;10.610;2022-09-13T07:40:12;100095.75;;;16.09;100.00
62150;BME280;48134;53.586;10.610;2022-09-13T07:42:45;100097.72;;;16.09;100.00
62150;BME280;48134;53.586;10.610;2022-09-13T07:45:18;100106.25;;;16.07;100.00
62150;BME280;48134;53.586;10.610;2022-09-13T07:47:47;100096.34;;;15.94;100.00
62150;BME280;48134;53.586;10.610;2022-09-13T07:50:25;100111.69;;;15.86;100.00
62150;BME280;48134;53.586;10.610;2022-09-13T07:52:58;100108.63;;;15.88;100.00
62150;BME280;48134;53.586;10.610;2022-09-13T07:55:31;100108.63;;;15.88;100.00
62150;BME280;48134;53.586;10.610;2022-09-13T07:57:59;100102.56;;;16.03;100.00
62150;BME280;48134;53.586;10.610;2022-09-13T08:00:32;100105.41;;;16.15;100.00
62150;BME280;48134;53.586;10.610;2022-09-13T08:03:06;100108.66;;;16.39;100.00
62150;BME280;48134;53.586;10.610;2022-09-13T08:05:38;100112.97;;;16.48;100.00
62150;BME280;48134;53.586;10.610;2022-09-13T08:08:06;100122.09;;;16.61;100.00
62150;BME280;48134;53.586;10.610;2022-09-13T08:10:39;100115.66;;;16.57;100.00
62150;BME280;48134;53.586;10.610;2022-09-13T08:13:11;100127.78;;;16.56;100.00
62150;BME280;48134;53.586;10.610;2022-09-13T08:15:44;100118.41;;;16.57;100.00
62150;BME280;48134;53.586;10.610;2022-09-13T08:18:17;100127.84;;;16.69;100.00
62150;BME280;48134;53.586;10.610;2022-09-13T08:20:52;100129.00;;;16.89;100.00
62150;BME280;48134;53.586;10.610;2022-09-13T08:23:27;100114.97;;;17.03;100.00
62150;BME280;48134;53.586;10.610;2022-09-13T08:26:00;100122.38;;;16.90;100.00
62150;BME280;48134;53.586;10.610;2022-09-13T08:28:34;100114.38;;;16.97;100.00
62150;BME280;48134;53.586;10.610;2022-09-13T08:31:08;100122.97;;;16.95;100.00
62150;BME280;48134;53.586;10.610;2022-09-13T08:33:41;100123.22;;;16.81;100.00
62150;BME280;48134;53.586;10.610;2022-09-13T08:36:16;100131.66;;;16.76;100.00
62150;BME280;48134;53.586;10.610;2022-09-13T08:38:49;100133.88;;;16.83;100.00
62150;BME280;48134;53.586;10.610;2022-09-13T08:41:26;100128.38;;;16.83;100.00
62150;BME280;48134;53.586;10.610;2022-09-13T08:44:06;100117.38;;;16.92;100.00
62150;BME280;48134;53.586;10.610;2022-09-13T08:46:42;100120.75;;;16.89;100.00
62150;BME280;48134;53.586;10.610;2022-09-13T08:49:17;100124.94;;;16.95;100.00
62150;BME280;48134;53.586;10.610;2022-09-13T08:51:53;100126.47;;;17.05;100.00
62150;BME280;48134;53.586;10.610;2022-09-13T08:54:27;100141.28;;;17.12;100.00
62150;BME280;48134;53.586;10.610;2022-09-13T08:56:56;100144.91;;;17.04;100.00
62150;BME280;48134;53.586;10.610;2022-09-13T08:59:35;100141.69;;;17.02;100.00
62150;BME280;48134;53.586;10.610;2022-09-13T09:02:15;100143.63;;;17.02;100.00
62150;BME280;48134;53.586;10.610;2022-09-13T09:04:54;100140.25;;;17.17;100.00
62150;BME280;48134;53.586;10.610;2022-09-13T09:07:26;100141.13;;;17.09;100.00
62150;BME280;48134;53.586;10.610;2022-09-13T09:10:00;100147.44;;;17.09;100.00
62150;BME280;48134;53.586;10.610;2022-09-13T09:12:35;100141.28;;;17.12;100.00
62150;BME280;48134;53.586;10.610;2022-09-13T09:15:13;100145.41;;;17.19;100.00
62150;BME280;48134;53.586;10.610;2022-09-13T09:17:46;100141.28;;;17.12;100.00
62150;BME280;48134;53.586;10.610;2022-09-13T09:20:20;100150.22;;;17.22;100.00
62150;BME280;48134;53.586;10.610;2022-09-13T09:22:55;100143.84;;;17.30;100.00
62150;BME280;48134;53.586;10.610;2022-09-13T09:25:25;100138.09;;;17.23;100.00
62150;BME280;48134;53.586;10.610;2022-09-13T09:27:53;100139.31;;;17.13;100.00
62150;BME280;48134;53.586;10.610;2022-09-13T09:30:21;100142.63;;;17.06;100.00
62150;BME280;48134;53.586;10.610;2022-09-13T09:32:59;100143.09;;;17.08;100.00
62150;BME280;48134;53.586;10.610;2022-09-13T09:35:35;100141.00;;;17.05;100.00
62150;BME280;48134;53.586;10.610;2022-09-13T09:38:29;100136.44;;;17.09;100.00
62150;BME280;48134;53.586;10.610;2022-09-13T09:41:04;100140.94;;;17.14;100.00
62150;BME280;48134;53.586;10.610;2022-09-13T09:43:38;100143.88;;;17.09;100.00
62150;BME280;48134;53.586;10.610;2022-09-13T09:46:13;100149.38;;;17.09;100.00
62150;BME280;48134;53.586;10.610;2022-09-13T09:48:49;100156.88;;;17.21;100.00
62150;BME280;48134;53.586;10.610;2022-09-13T09:51:18;100158.13;;;17.23;100.00
62150;BME280;48134;53.586;10.610;2022-09-13T09:53:56;100156.66;;;17.26;100.00
62150;BME280;48134;53.586;10.610;2022-09-13T09:56:32;100161.91;;;17.19;100.00
62150;BME280;48134;53.586;10.610;2022-09-13T09:59:10;100166.28;;;17.20;100.00
62150;BME280;48134;53.586;10.610;2022-09-13T10:01:51;100171.28;;;17.17;100.00
62150;BME280;48134;53.586;10.610;2022-09-13T10:04:23;100159.38;;;17.47;100.00
62150;BME280;48134;53.586;10.610;2022-09-13T10:07:10;100156.34;;;17.61;100.00
62150;BME280;48134;53.586;10.610;2022-09-13T10:09:54;100152.13;;;17.88;100.00
62150;BME280;48134;53.586;10.610;2022-09-13T10:12:30;100158.13;;;18.02;100.00
62150;BME280;48134;53.586;10.610;2022-09-13T10:15:03;100149.66;;;18.08;100.00
62150;BME280;48134;53.586;10.610;2022-09-13T10:17:37;100146.94;;;17.74;100.00
62150;BME280;48134;53.586;10.610;2022-09-13T10:20:20;100140.59;;;17.49;100.00
62150;BME280;48134;53.586;10.610;2022-09-13T10:23:08;100141.44;;;17.28;100.00
62150;BME280;48134;53.586;10.610;2022-09-13T10:25:43;100125.53;;;17.34;100.00
62150;BME280;48134;53.586;10.610;2022-09-13T10:28:12;100138.81;;;17.32;100.00
62150;BME280;48134;53.586;10.610;2022-09-13T10:30:47;100134.50;;;17.43;100.00
62150;BME280;48134;53.586;10.610;2022-09-13T10:33:20;100138.28;;;17.51;100.00
62150;BME280;48134;53.586;10.610;2022-09-13T10:35:51;100128.34;;;17.59;100.00
62150;BME280;48134;53.586;10.610;2022-09-13T10:38:23;100128.16;;;17.76;100.00
62150;BME280;48134;53.586;10.610;2022-09-13T10:40:58;100135.94;;;17.74;100.00
62150;BME280;48134;53.586;10.610;2022-09-13T10:43:32;100143.94;;;17.67;100.00
62150;BME280;48134;53.586;10.610;2022-09-13T10:46:07;100130.56;;;17.78;100.00
62150;BME280;48134;53.586;10.610;2022-09-13T10:48:43;100123.66;;;17.84;100.00
62150;BME280;48134;53.586;10.610;2022-09-13T10:51:19;100130.34;;;17.83;100.00
62150;BME280;48134;53.586;10.610;2022-09-13T10:54:05;100134.13;;;17.91;100.00
62150;BME280;48134;53.586;10.610;2022-09-13T10:56:35;100136.06;;;17.90;100.00
62150;BME280;48134;53.586;10.610;2022-09-13T10:59:16;100132.41;;;17.86;100.00
62150;BME280;48134;53.586;10.610;2022-09-13T11:01:47;100136.81;;;17.99;100.00
62150;BME280;48134;53.586;10.610;2022-09-13T11:07:18;100130.91;;;17.89;100.00
62150;BME280;48134;53.586;10.610;2022-09-13T11:09:48;100119.66;;;17.69;100.00
62150;BME280;48134;53.586;10.610;2022-09-13T11:12:25;100123.03;;;17.54;100.00
62150;BME280;48134;53.586;10.610;2022-09-13T11:15:00;100125.47;;;17.67;100.00
62150;BME280;48134;53.586;10.610;2022-09-13T11:17:47;100121.16;;;17.79;100.00
62150;BME280;48134;53.586;10.610;2022-09-13T11:20:28;100124.97;;;17.99;100.00
62150;BME280;48134;53.586;10.610;2022-09-13T11:23:24;100111.53;;;18.34;100.00
62150;BME280;48134;53.586;10.610;2022-09-13T11:26:05;100107.00;;;18.55;100.00
62150;BME280;48134;53.586;10.610;2022-09-13T11:28:38;100106.38;;;18.74;100.00
62150;BME280;48134;53.586;10.610;2022-09-13T11:31:20;100103.19;;;18.72;100.00
62150;BME280;48134;53.586;10.610;2022-09-13T11:33:51;100117.31;;;18.70;100.00
62150;BME280;48134;53.586;10.610;2022-09-13T11:39:18;100099.03;;;18.78;100.00
62150;BME280;48134;53.586;10.610;2022-09-13T11:41:52;100103.50;;;18.82;100.00
62150;BME280;48134;53.586;10.610;2022-09-13T11:44:38;100103.28;;;18.88;100.00
62150;BME280;48134;53.586;10.610;2022-09-13T11:47:12;100109.94;;;18.86;100.00
62150;BME280;48134;53.586;10.610;2022-09-13T11:49:56;100104.41;;;18.86;100.00
62150;BME280;48134;53.586;10.610;2022-09-13T11:52:32;100091.66;;;18.94;100.00
62150;BME280;48134;53.586;10.610;2022-09-13T11:55:07;100097.22;;;19.10;100.00
62150;BME280;48134;53.586;10.610;2022-09-13T11:57:46;100102.13;;;19.17;100.00
62150;BME280;48134;53.586;10.610;2022-09-13T12:00:22;100098.66;;;19.20;100.00
62150;BME280;48134;53.586;10.610;2022-09-13T12:02:58;100084.44;;;18.90;100.00
62150;BME280;48134;53.586;10.610;2022-09-13T12:05:33;100089.06;;;18.73;100.00
62150;BME280;48134;53.586;10.610;2022-09-13T12:08:03;100101.06;;;18.52;100.00
62150;BME280;48134;53.586;10.610;2022-09-13T12:10:36;100095.25;;;18.29;100.00
62150;BME280;48134;53.586;10.610;2022-09-13T12:13:05;100100.88;;;18.21;100.00
62150;BME280;48134;53.586;10.610;2022-09-13T12:15:38;100091.50;;;18.09;100.00
62150;BME280;48134;53.586;10.610;2022-09-13T12:18:12;100090.22;;;18.07;100.00
62150;BME280;48134;53.586;10.610;2022-09-13T12:20:42;100092.97;;;18.19;100.00
62150;BME280;48134;53.586;10.610;2022-09-13T12:23:15;100098.47;;;18.31;100.00
62150;BME280;48134;53.586;10.610;2022-09-13T12:25:45;100096.25;;;18.49;100.00
62150;BME280;48134;53.586;10.610;2022-09-13T12:28:16;100082.69;;;18.57;100.00
62150;BME280;48134;53.586;10.610;2022-09-13T12:30:53;100096.31;;;18.65;100.00
62150;BME280;48134;53.586;10.610;2022-09-13T12:33:28;100089.63;;;18.79;100.00
62150;BME280;48134;53.586;10.610;2022-09-13T12:36:08;100087.63;;;18.92;100.00
62150;BME280;48134;53.586;10.610;2022-09-13T12:38:50;100097.63;;;18.96;100.00
62150;BME280;48134;53.586;10.610;2022-09-13T12:41:33;100103.38;;;18.91;100.00
62150;BME280;48134;53.586;10.610;2022-09-13T12:44:11;100094.38;;;18.66;100.00
62150;BME280;48134;53.586;10.610;2022-09-13T12:46:54;100092.09;;;18.56;100.00
62150;BME280;48134;53.586;10.610;2022-09-13T12:49:33;100109.13;;;18.45;100.00
62150;BME280;48134;53.586;10.610;2022-09-13T12:52:15;100097.94;;;18.54;100.00
62150;BME280;48134;53.586;10.610;2022-09-13T12:55:12;100104.50;;;18.49;100.00
62150;BME280;48134;53.586;10.610;2022-09-13T12:57:50;100102.56;;;18.50;100.00
62150;BME280;48134;53.586;10.610;2022-09-13T13:00:26;100108.00;;;18.75;100.00
62150;BME280;48134;53.586;10.610;2022-09-13T13:03:02;100106.19;;;18.66;100.00
62150;BME280;48134;53.586;10.610;2022-09-13T13:05:37;100108.91;;;18.79;100.00
62150;BME280;48134;53.586;10.610;2022-09-13T13:08:19;100101.78;;;18.90;100.00
62150;BME280;48134;53.586;10.610;2022-09-13T13:11:00;100104.88;;;18.89;100.00
62150;BME280;48134;53.586;10.610;2022-09-13T13:13:32;100092.97;;;18.72;100.00
62150;BME280;48134;53.586;10.610;2022-09-13T13:16:02;100094.22;;;18.75;100.00
62150;BME280;48134;53.586;10.610;2022-09-13T13:21:25;100097.53;;;18.93;100.00